Time;durP1;ratioP1;P1;durP2;ratioP2;P2;SDS_P1;SDS_P2;PMS_P1;PMS_P2;Temp;Humidity;BMP_temperature;BMP_pressure;BME280_temperature;BME280_humidity;BME280_pressure;Samples;Min_cycle;Max_cycle;Signal;HPM_P1;HPM_P2
2022/01/22 00:01:38;;;;;;;;;8.50;7.00;;;;;21.16;50.67;100888.89;112947;1241;19495;-72
2022/01/22 00:04:04;;;;;;;;;8.00;6.00;;;;;21.15;50.60;100886.80;112992;1241;19157;-74
2022/01/22 00:06:30;;;;;;;;;6.00;6.00;;;;;21.14;50.69;100889.16;112948;1242;20501;-72
2022/01/22 00:08:56;;;;;;;;;8.00;6.00;;;;;21.15;50.50;100894.00;113008;1242;19177;-73
2022/01/22 00:11:22;;;;;;;;;9.00;8.00;;;;;21.14;50.58;100897.14;112969;1242;19669;-72
2022/01/22 00:16:32;;;;;;;;;6.00;6.00;;;;;21.13;50.48;100901.69;112997;1241;23097;-72
2022/01/22 00:18:58;;;;;;;;;9.00;6.00;;;;;21.13;50.56;100902.57;113032;1242;19136;-72
2022/01/22 00:21:24;;;;;;;;;8.50;7.00;;;;;21.12;50.45;100899.55;112993;1242;21687;-72
2022/01/22 00:23:56;;;;;;;;;7.00;6.00;;;;;21.10;50.30;100903.41;113017;1241;19228;-72
2022/01/22 00:26:22;;;;;;;;;6.67;6.00;;;;;21.10;50.36;100903.38;112961;1242;22304;-71
2022/01/22 00:28:48;;;;;;;;;6.00;6.00;;;;;21.11;50.49;100909.55;112999;1242;20360;-72
2022/01/22 00:31:14;;;;;;;;;6.00;6.00;;;;;21.11;50.10;100913.34;112971;1242;18998;-71
2022/01/22 00:33:39;;;;;;;;;8.00;8.00;;;;;21.11;50.28;100913.67;112948;1241;19364;-71
2022/01/22 00:36:05;;;;;;;;;6.00;6.00;;;;;21.12;50.24;100915.62;112967;1241;20009;-72
2022/01/22 00:38:31;;;;;;;;;6.00;6.00;;;;;21.12;50.36;100913.98;113003;1242;19076;-72
2022/01/22 00:40:57;;;;;;;;;6.00;5.50;;;;;21.11;50.22;100912.21;113055;1242;19120;-72
2022/01/22 00:43:23;;;;;;;;;7.00;7.00;;;;;21.10;50.14;100906.35;113037;1241;22466;-71
2022/01/22 00:45:49;;;;;;;;;6.67;6.67;;;;;21.10;50.21;100910.33;112968;1241;19397;-71
2022/01/22 00:48:15;;;;;;;;;7.00;6.00;;;;;21.11;50.22;100913.53;112970;1242;19193;-71
2022/01/22 00:50:41;;;;;;;;;6.00;5.50;;;;;21.09;50.27;100910.23;112990;1242;22957;-71
2022/01/22 00:53:07;;;;;;;;;5.50;5.00;;;;;21.11;50.08;100913.36;113020;1242;19053;-72
2022/01/22 00:55:32;;;;;;;;;9.00;6.00;;;;;21.10;49.99;100914.84;113021;1241;19531;-73
2022/01/22 00:57:58;;;;;;;;;6.00;6.00;;;;;21.11;50.13;100916.45;113042;1241;19934;-74
2022/01/22 01:00:24;;;;;;;;;5.00;5.00;;;;;21.10;50.19;100917.92;113032;1242;23266;-73
2022/01/22 01:02:50;;;;;;;;;6.00;6.00;;;;;21.10;49.99;100915.98;112980;1242;19931;-73
2022/01/22 01:05:16;;;;;;;;;5.00;5.00;;;;;21.08;49.84;100919.98;112929;1242;20494;-73
2022/01/22 01:07:42;;;;;;;;;8.00;6.00;;;;;21.08;49.99;100917.67;112996;1242;19028;-74
2022/01/22 01:10:08;;;;;;;;;6.00;6.00;;;;;21.09;49.92;100918.95;112931;1242;19158;-73
2022/01/22 01:12:35;;;;;;;;;9.00;8.00;;;;;21.08;49.93;100913.23;112981;1242;23848;-74
2022/01/22 01:15:14;;;;;;;;;9.00;6.00;;;;;21.09;49.84;100911.19;112984;1242;19370;-73
2022/01/22 01:17:59;;;;;;;;;6.00;6.00;;;;;21.08;49.78;100911.85;112952;1241;19401;-72
2022/01/22 01:34:11;;;;;;;;;5.33;5.00;;;;;21.06;49.62;100922.89;112949;1242;19892;-73
2022/01/22 01:36:37;;;;;;;;;5.67;5.00;;;;;21.07;49.56;100925.04;112979;1241;20433;-72
2022/01/22 01:39:05;;;;;;;;;6.00;6.00;;;;;21.06;49.48;100920.91;113008;1242;19917;-73
2022/01/22 01:41:39;;;;;;;;;5.00;5.00;;;;;21.06;49.52;100919.45;112928;1242;22071;-73
2022/01/22 01:44:05;;;;;;;;;6.00;6.00;;;;;21.06;49.61;100917.68;112936;1242;21699;-72
2022/01/22 01:46:32;;;;;;;;;5.00;5.00;;;;;21.06;49.28;100916.08;112943;1241;19106;-73
2022/01/22 01:48:59;;;;;;;;;8.00;6.67;;;;;21.06;49.50;100921.80;112956;1241;20056;-74
2022/01/22 01:51:28;;;;;;;;;4.33;4.33;;;;;21.06;49.38;100919.99;112961;1242;22005;-72
2022/01/22 01:54:00;;;;;;;;;5.33;5.00;;;;;21.06;49.48;100919.79;112990;1242;19398;-74
2022/01/22 01:59:09;;;;;;;;;6.67;6.00;;;;;21.06;49.32;100923.10;112154;1247;23407;-71
2022/01/22 02:01:35;;;;;;;;;6.00;5.50;;;;;21.05;49.21;100927.56;112176;1247;19288;-73
2022/01/22 02:04:01;;;;;;;;;6.00;5.50;;;;;21.06;49.28;100930.18;112253;1248;19961;-73
2022/01/22 02:06:27;;;;;;;;;8.00;6.00;;;;;21.06;49.24;100935.34;112287;1247;20002;-73
2022/01/22 02:08:53;;;;;;;;;6.00;6.00;;;;;21.03;49.18;100932.13;112294;1247;19097;-74
2022/01/22 02:11:21;;;;;;;;;6.00;6.00;;;;;21.05;49.34;100944.49;112268;1247;19343;-71
2022/01/22 02:14:00;;;;;;;;;6.00;5.33;;;;;21.05;49.11;100944.34;112156;1248;20540;-72
2022/01/22 02:24:35;;;;;;;;;6.00;5.00;;;;;21.04;49.15;100955.48;112244;1248;19234;-72
2022/01/22 02:27:02;;;;;;;;;5.50;5.00;;;;;21.03;49.14;100954.30;112170;1247;22033;-72
2022/01/22 02:29:28;;;;;;;;;5.00;4.00;;;;;21.03;49.04;100954.34;112201;1248;22165;-72
2022/01/22 02:32:06;;;;;;;;;5.33;5.00;;;;;21.03;48.96;100954.66;112143;1248;19262;-72
2022/01/22 02:34:39;;;;;;;;;5.00;5.00;;;;;21.03;49.13;100951.81;112168;1247;19485;-72
2022/01/22 02:37:11;;;;;;;;;5.00;4.67;;;;;21.03;48.72;100956.34;112704;1242;20149;-74
2022/01/22 02:39:41;;;;;;;;;6.00;5.00;;;;;21.02;48.72;100956.41;113037;1242;19373;-72
2022/01/22 02:42:07;;;;;;;;;5.00;5.00;;;;;21.03;48.84;100957.60;113111;1242;19359;-71
2022/01/22 02:44:35;;;;;;;;;6.00;5.00;;;;;21.03;48.80;100962.84;112980;1242;20004;-73
2022/01/22 02:47:01;;;;;;;;;4.67;4.67;;;;;21.04;49.00;100963.52;113044;1241;19066;-72
2022/01/22 02:49:26;;;;;;;;;4.50;4.50;;;;;21.03;48.84;100963.05;113033;1242;19111;-73
2022/01/22 02:51:52;;;;;;;;;5.00;4.00;;;;;21.03;48.84;100963.08;112964;1242;20002;-72
2022/01/22 02:54:18;;;;;;;;;5.00;5.00;;;;;21.02;48.69;100968.40;112942;1241;22716;-72
2022/01/22 02:56:44;;;;;;;;;5.00;5.00;;;;;21.02;48.72;100973.85;113005;1242;19307;-72
2022/01/22 02:59:10;;;;;;;;;4.00;4.00;;;;;21.03;48.78;100983.94;112942;1241;22957;-72
2022/01/22 03:01:36;;;;;;;;;5.00;5.00;;;;;21.02;48.80;100978.80;112999;1242;22896;-72
2022/01/22 03:04:02;;;;;;;;;5.00;5.00;;;;;21.02;48.81;100983.57;112969;1242;19818;-72
2022/01/22 03:06:27;;;;;;;;;5.00;5.00;;;;;21.01;48.75;100985.07;112982;1242;19940;-72
2022/01/22 03:08:53;;;;;;;;;7.00;6.00;;;;;21.01;48.53;100987.29;112992;1242;21608;-72
2022/01/22 03:11:23;;;;;;;;;5.00;5.00;;;;;21.01;48.76;100990.17;113057;1242;19319;-72
2022/01/22 03:16:49;;;;;;;;;5.00;5.00;;;;;21.00;48.76;100991.58;112977;1241;22691;-72
2022/01/22 03:19:29;;;;;;;;;6.33;5.67;;;;;21.01;48.46;100998.77;113000;1242;19740;-72
2022/01/22 03:22:01;;;;;;;;;6.00;5.00;;;;;21.00;48.59;100997.16;112967;1242;21768;-72
2022/01/22 03:29:56;;;;;;;;;5.00;5.00;;;;;20.97;48.36;100994.86;112953;1242;21267;-72
2022/01/22 03:32:22;;;;;;;;;4.67;4.00;;;;;21.00;48.24;100997.20;113032;1242;19222;-72
2022/01/22 03:34:56;;;;;;;;;5.33;5.00;;;;;20.99;48.28;100998.20;112995;1242;20261;-73
2022/01/22 03:37:22;;;;;;;;;4.67;4.00;;;;;21.00;48.32;101000.14;112957;1242;20206;-72
2022/01/22 03:39:48;;;;;;;;;4.00;4.00;;;;;20.99;48.44;101002.21;112951;1242;20041;-72
2022/01/22 03:42:14;;;;;;;;;4.00;4.00;;;;;21.00;48.30;101002.32;113013;1242;21713;-72
2022/01/22 03:44:40;;;;;;;;;6.00;4.00;;;;;21.00;48.31;101005.20;113052;1242;23467;-72
2022/01/22 03:47:06;;;;;;;;;4.00;4.00;;;;;20.99;48.03;101008.17;113072;1242;19035;-72
2022/01/22 03:49:32;;;;;;;;;5.50;5.00;;;;;20.99;48.25;101014.16;112974;1242;19335;-72
2022/01/22 03:51:58;;;;;;;;;5.00;5.00;;;;;20.99;48.27;101015.84;112956;1241;23661;-72
2022/01/22 03:54:23;;;;;;;;;5.00;5.00;;;;;21.00;48.20;101021.77;113027;1242;20901;-71
2022/01/22 03:56:51;;;;;;;;;4.00;4.00;;;;;21.00;48.20;101024.45;113056;1242;19785;-72
2022/01/22 03:59:17;;;;;;;;;4.00;4.00;;;;;21.01;48.11;101029.63;112989;1242;21547;-72
2022/01/22 04:04:31;;;;;;;;;2.00;2.00;;;;;20.99;48.10;101034.88;112963;1241;19581;-72
2022/01/22 04:09:59;;;;;;;;;4.67;4.67;;;;;20.99;48.25;101040.70;112216;1247;19336;-72
2022/01/22 04:12:32;;;;;;;;;4.00;4.00;;;;;20.99;48.02;101044.91;112284;1248;20945;-71
2022/01/22 04:15:02;;;;;;;;;4.67;4.00;;;;;21.00;48.10;101049.55;112271;1248;21772;-71
2022/01/22 04:24:48;;;;;;;;;6.00;5.00;;;;;20.99;48.04;101052.55;112285;1247;19257;-72
2022/01/22 04:25:56;;;;;;;;;5.00;4.00;;;;;20.98;47.99;101061.16;112263;1248;23577;-72
2022/01/22 04:28:22;;;;;;;;;2.00;2.00;;;;;20.98;47.88;101067.35;112274;1247;23449;-71
2022/01/22 04:30:48;;;;;;;;;4.00;4.00;;;;;20.98;47.99;101068.14;112296;1248;20598;-72
2022/01/22 04:33:14;;;;;;;;;3.00;3.00;;;;;20.93;47.78;101058.81;112267;1247;19085;-72
2022/01/22 04:35:40;;;;;;;;;4.00;4.00;;;;;20.96;47.89;101067.45;112265;1247;24553;-72
2022/01/22 04:38:06;;;;;;;;;4.00;4.00;;;;;20.97;47.73;101073.84;112206;1248;19944;-72
2022/01/22 04:40:32;;;;;;;;;4.00;3.00;;;;;20.96;48.01;101067.91;112336;1242;19631;-71
2022/01/22 04:43:00;;;;;;;;;5.00;4.00;;;;;20.97;47.70;101073.33;113019;1241;19174;-72
2022/01/22 04:45:38;;;;;;;;;4.00;4.00;;;;;20.97;47.58;101076.02;113046;1242;21906;-72
2022/01/22 04:48:23;;;;;;;;;4.00;4.00;;;;;20.97;47.69;101082.15;112944;1242;21531;-72
2022/01/22 04:56:17;;;;;;;;;4.67;4.67;;;;;20.98;47.73;101090.20;112941;1241;19238;-72
2022/01/22 04:58:43;;;;;;;;;4.00;4.00;;;;;20.98;47.56;101090.39;113043;1242;22919;-72
2022/01/22 05:01:09;;;;;;;;;4.00;4.00;;;;;20.99;47.48;101092.55;112995;1241;20245;-72
2022/01/22 05:03:35;;;;;;;;;2.00;2.00;;;;;20.98;47.62;101091.34;112952;1241;22617;-72
2022/01/22 05:06:01;;;;;;;;;5.00;4.00;;;;;20.98;47.44;101097.13;113016;1242;19123;-72
2022/01/22 05:08:27;;;;;;;;;4.00;4.00;;;;;20.98;47.45;101097.30;113077;1242;22611;-73
2022/01/22 05:10:53;;;;;;;;;4.50;4.00;;;;;20.99;47.33;101098.85;113052;1242;19117;-74
2022/01/22 05:13:19;;;;;;;;;5.00;4.00;;;;;20.99;47.41;101096.90;112954;1242;21053;-74
2022/01/22 05:15:45;;;;;;;;;5.00;5.00;;;;;20.98;47.35;101098.23;112961;1241;22563;-74
2022/01/22 05:18:11;;;;;;;;;3.33;3.33;;;;;20.97;47.43;101096.04;112993;1242;20294;-74
2022/01/22 05:20:45;;;;;;;;;5.50;5.00;;;;;20.98;47.22;101099.10;112973;1242;19066;-73
2022/01/22 05:23:15;;;;;;;;;2.00;2.00;;;;;20.98;47.29;101099.10;112948;1241;21722;-72
2022/01/22 05:25:45;;;;;;;;;4.00;4.00;;;;;20.99;47.34;101102.55;112977;1242;19245;-74
2022/01/22 05:28:30;;;;;;;;;4.00;4.00;;;;;20.99;47.30;101106.71;112957;1242;19636;-72
2022/01/22 05:31:05;;;;;;;;;2.00;2.00;;;;;20.98;47.27;101111.45;113050;1241;20911;-72
2022/01/22 05:36:55;;;;;;;;;4.33;4.00;;;;;20.98;47.04;101108.58;113040;1242;23842;-72
2022/01/22 05:39:07;;;;;;;;;4.00;4.00;;;;;20.98;47.03;101112.73;112958;1242;20520;-73
2022/01/22 05:41:33;;;;;;;;;3.33;3.33;;;;;20.99;47.12;101117.41;112983;1241;19238;-72
2022/01/22 05:43:59;;;;;;;;;2.00;2.00;;;;;20.97;47.05;101112.67;112960;1242;23843;-72
2022/01/22 05:46:24;;;;;;;;;4.00;3.00;;;;;20.98;46.89;101122.41;113002;1242;21142;-73
2022/01/22 05:48:50;;;;;;;;;4.00;4.00;;;;;20.94;46.65;101117.98;112975;1241;19051;-71
2022/01/22 05:51:17;;;;;;;;;4.00;4.00;;;;;20.97;46.75;101124.32;112959;1242;19785;-71
2022/01/22 05:53:59;;;;;;;;;2.67;2.67;;;;;20.98;46.72;101125.52;112923;1242;20171;-72
2022/01/22 06:01:56;;;;;;;;;4.00;2.00;;;;;20.98;46.74;101135.35;112954;1241;20876;-73
2022/01/22 06:04:22;;;;;;;;;4.00;4.00;;;;;20.97;46.85;101131.84;112991;1242;19249;-72
2022/01/22 06:06:47;;;;;;;;;2.00;2.00;;;;;20.96;46.57;101137.30;113000;1242;19189;-71
2022/01/22 06:09:13;;;;;;;;;4.00;4.00;;;;;20.96;46.68;101138.05;113064;1241;20067;-74
2022/01/22 06:11:53;;;;;;;;;3.00;3.00;;;;;20.96;46.42;101146.97;113061;1242;19135;-72
2022/01/22 06:14:19;;;;;;;;;5.00;5.00;;;;;20.96;46.54;101148.81;113003;1242;19312;-71
2022/01/22 06:16:45;;;;;;;;;3.00;2.00;;;;;20.96;46.52;101152.83;113007;1242;20714;-72
2022/01/22 06:19:10;;;;;;;;;2.00;2.00;;;;;20.95;46.59;101153.30;113052;1242;19353;-72
2022/01/22 06:21:36;;;;;;;;;4.00;4.00;;;;;20.95;46.52;101161.42;113095;1242;19309;-74
2022/01/22 06:24:02;;;;;;;;;2.00;2.00;;;;;20.91;46.60;101153.20;113045;1242;24441;-71
2022/01/22 06:26:28;;;;;;;;;5.00;5.00;;;;;20.95;46.61;101162.04;113013;1242;19095;-72
2022/01/22 06:28:54;;;;;;;;;4.00;4.00;;;;;20.94;46.46;101162.10;113016;1242;19296;-72
2022/01/22 06:31:20;;;;;;;;;2.00;2.00;;;;;20.94;46.61;101169.86;112975;1242;20017;-71
2022/01/22 06:33:46;;;;;;;;;4.00;4.00;;;;;20.93;46.53;101176.95;112977;1242;19356;-72
2022/01/22 06:36:12;;;;;;;;;2.00;2.00;;;;;20.94;46.56;101178.23;113002;1242;23472;-72
2022/01/22 06:38:38;;;;;;;;;5.00;4.00;;;;;20.97;46.35;101179.70;113031;1242;20589;-72
2022/01/22 06:43:48;;;;;;;;;2.00;2.00;;;;;20.97;46.78;101185.09;113027;1242;19632;-72
2022/01/22 06:46:14;;;;;;;;;4.50;3.00;;;;;20.99;46.73;101184.05;113075;1242;20227;-71
2022/01/22 06:48:40;;;;;;;;;5.00;5.00;;;;;20.99;46.92;101189.31;113095;1242;19070;-71
2022/01/22 06:51:06;;;;;;;;;2.00;2.00;;;;;20.99;46.78;101198.21;113058;1242;21172;-71
2022/01/22 06:53:35;;;;;;;;;3.00;3.00;;;;;20.98;46.74;101198.34;113073;1242;20138;-72
2022/01/22 06:56:03;;;;;;;;;4.00;4.00;;;;;20.97;47.13;101202.27;113105;1242;19216;-70
2022/01/22 06:58:29;;;;;;;;;4.00;4.00;;;;;20.98;46.89;101208.73;113062;1241;19374;-70
2022/01/22 07:00:55;;;;;;;;;5.00;4.50;;;;;20.97;46.90;101210.07;113022;1241;20654;-70
2022/01/22 07:03:21;;;;;;;;;4.50;4.00;;;;;21.00;46.95;101218.35;113018;1241;19096;-71
2022/01/22 07:05:47;;;;;;;;;3.00;3.00;;;;;20.99;46.83;101218.45;113045;1242;20676;-71
2022/01/22 07:08:12;;;;;;;;;4.00;4.00;;;;;21.01;46.70;101219.68;113051;1241;20676;-71
2022/01/22 07:10:39;;;;;;;;;4.33;4.00;;;;;21.08;46.83;101223.07;113026;1242;20921;-69
2022/01/22 07:13:04;;;;;;;;;2.00;2.00;;;;;21.14;47.29;101225.31;113010;1241;19180;-69
2022/01/22 07:15:30;;;;;;;;;4.00;2.00;;;;;21.18;47.45;101230.41;113020;1241;20096;-70
2022/01/22 07:17:56;;;;;;;;;4.00;2.00;;;;;21.16;47.87;101238.02;113055;1242;19001;-70
2022/01/22 07:20:27;;;;;;;;;4.00;4.00;;;;;21.13;47.89;101234.77;113048;1242;19106;-68
2022/01/22 07:23:00;;;;;;;;;8.00;7.33;;;;;21.14;47.77;101243.52;112965;1242;20827;-68
2022/01/22 07:25:26;;;;;;;;;8.33;6.67;;;;;21.20;47.91;101243.77;113046;1242;19254;-68
2022/01/22 07:27:52;;;;;;;;;6.00;6.00;;;;;21.26;48.24;101251.41;113102;1241;19432;-69
2022/01/22 07:30:18;;;;;;;;;13.00;13.00;;;;;21.28;48.27;101260.09;113139;1242;20797;-69
2022/01/22 07:32:44;;;;;;;;;12.50;12.50;;;;;21.26;48.33;101265.80;113077;1241;23679;-70
2022/01/22 07:35:10;;;;;;;;;18.33;17.67;;;;;21.28;48.54;101266.91;113083;1241;21026;-70
2022/01/22 07:37:36;;;;;;;;;21.00;20.50;;;;;21.29;48.64;101268.89;113104;1242;20276;-72
2022/01/22 07:40:02;;;;;;;;;25.33;23.00;;;;;21.30;48.91;101272.14;113050;1241;19352;-71
2022/01/22 07:42:28;;;;;;;;;39.00;34.67;;;;;21.29;48.80;101266.98;112993;1242;20992;-71
2022/01/22 07:44:54;;;;;;;;;196.75;166.25;;;;;21.29;49.07;101279.47;113006;1242;20006;-72
2022/01/22 07:47:20;;;;;;;;;189.50;159.50;;;;;21.31;48.76;101286.86;112982;1241;23178;-71
2022/01/22 07:49:46;;;;;;;;;4495.00;4495.00;;;;;21.27;49.00;101292.30;113012;1242;19939;-71
2022/01/22 07:52:12;;;;;;;;;686.50;622.25;;;;;21.34;48.95;101303.46;113001;1242;20237;-71
2022/01/22 07:54:38;;;;;;;;;309.75;249.00;;;;;21.35;48.97;101305.55;113018;1241;19345;-72
2022/01/22 07:57:04;;;;;;;;;281.50;231.50;;;;;21.37;49.15;101307.91;113018;1241;21990;-75
2022/01/22 07:59:30;;;;;;;;;263.75;212.25;;;;;21.38;48.79;101316.50;112972;1241;20297;-68
2022/01/22 08:01:56;;;;;;;;;272.00;217.75;;;;;21.39;48.59;101319.33;112989;1241;23992;-75
2022/01/22 08:04:24;;;;;;;;;197.25;172.25;;;;;21.34;48.45;101320.40;112986;1242;19386;-70
2022/01/22 08:06:50;;;;;;;;;186.75;155.75;;;;;21.33;48.22;101323.58;113022;1241;21802;-70
2022/01/22 08:09:16;;;;;;;;;188.00;160.50;;;;;21.31;48.43;101333.66;113084;1242;21496;-70
2022/01/22 08:11:42;;;;;;;;;160.67;139.33;;;;;21.31;48.29;101339.45;113029;1241;21136;-69
2022/01/22 08:14:09;;;;;;;;;156.33;130.67;;;;;21.31;48.90;101343.52;113050;1241;20120;-69
2022/01/22 08:16:35;;;;;;;;;147.25;125.00;;;;;21.28;49.17;101338.15;112962;1241;22217;-69
2022/01/22 08:19:01;;;;;;;;;130.00;114.00;;;;;21.27;49.11;101336.28;112873;1241;20802;-69
2022/01/22 08:21:27;;;;;;;;;130.00;115.00;;;;;21.26;48.56;101336.71;113013;1241;20762;-68
2022/01/22 08:23:53;;;;;;;;;125.33;111.33;;;;;21.30;48.81;101340.30;112993;1242;19069;-68
2022/01/22 08:26:23;;;;;;;;;127.50;107.50;;;;;21.30;48.63;101340.24;112884;1241;23546;-71
2022/01/22 08:28:57;;;;;;;;;110.00;95.00;;;;;21.32;48.63;101345.19;112879;1242;20939;-70
2022/01/22 08:31:27;;;;;;;;;112.50;94.25;;;;;21.29;48.56;101350.94;113003;1241;22384;-71
2022/01/22 08:36:37;;;;;;;;;103.00;83.00;;;;;21.22;48.47;101358.04;113076;1242;20189;-70
2022/01/22 08:39:03;;;;;;;;;97.33;75.67;;;;;21.24;48.37;101356.35;113108;1241;22618;-74
2022/01/22 08:41:28;;;;;;;;;99.67;80.67;;;;;21.27;48.39;101363.48;113044;1242;19371;-71
2022/01/22 08:43:54;;;;;;;;;94.00;75.00;;;;;21.31;48.51;101359.34;113021;1241;20330;-72
2022/01/22 08:46:20;;;;;;;;;93.67;71.00;;;;;21.31;48.70;101358.16;113008;1242;20586;-69
2022/01/22 08:48:46;;;;;;;;;90.33;69.00;;;;;21.36;48.51;101357.84;113046;1242;19319;-69
2022/01/22 08:51:12;;;;;;;;;93.67;69.67;;;;;21.37;48.79;101356.43;113023;1241;20559;-71
2022/01/22 08:53:38;;;;;;;;;95.00;69.67;;;;;21.42;48.56;101360.29;113060;1242;19426;-70
2022/01/22 08:56:05;;;;;;;;;85.00;65.67;;;;;21.42;48.58;101369.56;113002;1242;19219;-71
2022/01/22 08:58:31;;;;;;;;;86.67;64.33;;;;;21.41;48.72;101370.73;113001;1241;20821;-70
2022/01/22 09:00:57;;;;;;;;;83.00;64.33;;;;;21.50;48.72;101377.63;112939;1242;23495;-70
2022/01/22 09:03:23;;;;;;;;;77.33;62.00;;;;;21.55;48.61;101380.27;112829;1242;19842;-70
2022/01/22 09:05:49;;;;;;;;;79.67;60.67;;;;;21.64;48.12;101387.68;112819;1242;20231;-71
2022/01/22 09:08:15;;;;;;;;;85.00;63.00;;;;;21.71;47.74;101394.05;112828;1242;22386;-70
2022/01/22 09:10:41;;;;;;;;;76.33;59.67;;;;;21.69;47.97;101396.04;113394;1241;19353;-71
2022/01/22 09:13:07;;;;;;;;;84.67;63.00;;;;;21.66;48.37;101396.45;113000;1242;19989;-71
2022/01/22 09:15:33;;;;;;;;;74.67;59.00;;;;;21.65;48.58;101399.08;113032;1242;19073;-71
2022/01/22 09:17:59;;;;;;;;;68.33;55.00;;;;;21.69;48.05;101398.03;113025;1241;19913;-72
2022/01/22 09:20:44;;;;;;;;;74.00;55.67;;;;;21.68;48.23;101401.98;113022;1242;23680;-70
2022/01/22 09:23:10;;;;;;;;;74.00;56.33;;;;;21.71;48.26;101406.76;113013;1241;23802;-73
2022/01/22 09:25:35;;;;;;;;;67.33;53.33;;;;;21.76;47.96;101416.63;112981;1242;20163;-73
2022/01/22 09:28:01;;;;;;;;;70.00;53.67;;;;;21.80;47.85;101420.50;112973;1242;23744;-71
2022/01/22 09:30:27;;;;;;;;;66.67;53.33;;;;;21.83;48.13;101424.48;112974;1241;19050;-71
2022/01/22 09:32:53;;;;;;;;;65.67;53.33;;;;;21.85;47.90;101428.99;112915;1242;21634;-73
2022/01/22 09:35:19;;;;;;;;;67.00;53.00;;;;;21.76;47.40;101433.45;112835;1242;19989;-73
2022/01/22 09:37:45;;;;;;;;;72.33;57.00;;;;;21.68;47.22;101438.23;112846;1241;19024;-71
2022/01/22 09:40:12;;;;;;;;;71.00;57.33;;;;;21.62;47.47;101434.83;112793;1242;20673;-71
2022/01/22 09:42:38;;;;;;;;;91.67;68.67;;;;;21.60;46.99;101438.11;113313;1241;23141;-70
2022/01/22 09:45:04;;;;;;;;;83.67;62.67;;;;;21.58;46.91;101448.66;112947;1242;19155;-71
2022/01/22 09:47:30;;;;;;;;;86.67;64.00;;;;;21.57;47.37;101452.41;112951;1241;19584;-70
2022/01/22 09:49:55;;;;;;;;;74.00;58.50;;;;;21.56;47.83;101451.45;112882;1241;24969;-69
2022/01/22 09:52:22;;;;;;;;;73.50;56.50;;;;;21.57;47.49;101447.92;112922;1241;19068;-71
2022/01/22 09:54:48;;;;;;;;;78.00;58.67;;;;;21.55;46.68;101450.84;112886;1242;21071;-72
2022/01/22 09:57:14;;;;;;;;;75.33;56.00;;;;;21.53;47.28;101454.73;112886;1242;23892;-71
2022/01/22 09:59:40;;;;;;;;;65.33;52.33;;;;;21.53;47.69;101460.94;112919;1242;19200;-69
2022/01/22 10:02:06;;;;;;;;;66.00;47.00;;;;;21.50;47.09;101464.88;112802;1241;22927;-69
2022/01/22 10:04:32;;;;;;;;;53.33;44.67;;;;;21.27;45.73;101464.02;112752;1242;20157;-68
2022/01/22 10:06:58;;;;;;;;;49.00;42.00;;;;;20.97;43.75;101465.32;112815;1242;19187;-69
2022/01/22 10:09:32;;;;;;;;;45.67;40.00;;;;;20.89;42.68;101468.64;113019;1241;22390;-69
2022/01/22 10:11:58;;;;;;;;;41.67;36.00;;;;;20.85;41.46;101468.61;113019;1242;20143;-72
2022/01/22 10:14:24;;;;;;;;;40.00;38.50;;;;;20.82;40.70;101468.62;113021;1242;19618;-70
2022/01/22 10:16:50;;;;;;;;;31.00;27.00;;;;;20.77;40.11;101470.05;112988;1242;19778;-72
2022/01/22 10:19:16;;;;;;;;;34.00;31.00;;;;;20.73;39.49;101473.16;113000;1241;22156;-72
2022/01/22 10:21:42;;;;;;;;;35.00;28.50;;;;;20.72;39.53;101478.66;113052;1242;21271;-72
2022/01/22 10:24:08;;;;;;;;;35.00;31.00;;;;;20.66;38.62;101484.44;113043;1242;19417;-70
2022/01/22 10:26:34;;;;;;;;;33.00;29.00;;;;;20.63;38.73;101479.89;113022;1242;20528;-73
2022/01/22 10:29:01;;;;;;;;;34.50;29.00;;;;;20.76;39.23;101484.28;113023;1242;19094;-73
2022/01/22 10:31:29;;;;;;;;;31.00;26.00;;;;;20.89;40.08;101487.44;112988;1242;21753;-71
2022/01/22 10:33:55;;;;;;;;;29.67;27.67;;;;;20.98;40.25;101482.11;113014;1242;20359;-70
2022/01/22 10:36:21;;;;;;;;;32.00;28.00;;;;;21.12;40.66;101487.05;113036;1241;18999;-73
2022/01/22 10:38:47;;;;;;;;;31.33;27.67;;;;;21.15;41.25;101488.38;113048;1242;19502;-77
2022/01/22 10:41:14;;;;;;;;;35.50;30.50;;;;;21.18;41.80;101486.02;113047;1242;21918;-72
2022/01/22 10:43:42;;;;;;;;;25.67;24.00;;;;;21.26;42.22;101490.15;113012;1242;19305;-67
2022/01/22 10:46:10;;;;;;;;;31.00;28.00;;;;;21.28;42.51;101496.77;112989;1241;20262;-69
2022/01/22 10:48:36;;;;;;;;;25.50;24.00;;;;;21.27;42.51;101502.77;113014;1242;20177;-69
2022/01/22 10:51:02;;;;;;;;;32.50;27.00;;;;;21.23;42.68;101500.27;112987;1242;24816;-69
2022/01/22 10:53:27;;;;;;;;;31.00;25.00;;;;;21.20;42.90;101501.84;113089;1242;19620;-68
2022/01/22 10:55:53;;;;;;;;;27.00;26.50;;;;;21.18;43.06;101509.00;112930;1241;20536;-68
2022/01/22 10:58:19;;;;;;;;;27.00;22.00;;;;;21.14;43.36;101511.59;113035;1241;22221;-70
2022/01/22 11:00:45;;;;;;;;;27.00;26.00;;;;;21.12;43.48;101516.77;113047;1241;19361;-69
2022/01/22 11:03:11;;;;;;;;;28.00;23.00;;;;;21.10;43.56;101520.37;113104;1242;20088;-68
2022/01/22 11:05:38;;;;;;;;;24.00;23.50;;;;;21.08;44.01;101523.48;113119;1242;20972;-68
2022/01/22 11:08:04;;;;;;;;;26.33;24.33;;;;;21.06;44.08;101528.92;113017;1242;23541;-68
2022/01/22 11:10:29;;;;;;;;;29.50;28.00;;;;;21.05;44.18;101531.59;113096;1242;22273;-69
2022/01/22 11:12:55;;;;;;;;;27.50;24.00;;;;;21.04;44.05;101531.27;113042;1242;19168;-70
2022/01/22 11:15:21;;;;;;;;;24.00;24.00;;;;;21.02;44.35;101534.23;113028;1242;19281;-68
2022/01/22 11:17:47;;;;;;;;;27.00;23.00;;;;;21.02;44.48;101538.09;113034;1242;20040;-69
2022/01/22 11:20:13;;;;;;;;;28.00;23.00;;;;;21.03;44.58;101544.52;113026;1242;19058;-67
2022/01/22 11:22:39;;;;;;;;;20.33;19.00;;;;;21.01;44.53;101543.23;113021;1242;20327;-71
2022/01/22 11:25:07;;;;;;;;;28.00;20.50;;;;;21.02;44.46;101542.27;113117;1242;22680;-69
2022/01/22 11:27:33;;;;;;;;;21.67;20.00;;;;;21.02;44.62;101545.38;113019;1242;22351;-69
2022/01/22 11:29:59;;;;;;;;;23.00;21.00;;;;;21.01;44.59;101546.70;112857;1242;337072;-70
2022/01/22 11:32:25;;;;;;;;;21.00;21.00;;;;;21.01;44.70;101545.64;113069;1242;20070;-68
2022/01/22 11:34:51;;;;;;;;;20.00;17.00;;;;;21.00;44.73;101545.34;113085;1241;21972;-67
2022/01/22 11:37:17;;;;;;;;;25.33;19.33;;;;;21.00;44.69;101551.56;112971;1242;20246;-68
2022/01/22 11:39:43;;;;;;;;;25.00;23.00;;;;;20.99;44.66;101549.45;112879;1241;19950;-68
2022/01/22 11:42:09;;;;;;;;;24.00;20.00;;;;;20.99;44.70;101556.90;113032;1242;22830;-68
2022/01/22 11:44:39;;;;;;;;;21.00;19.67;;;;;20.99;44.63;101563.08;113038;1242;19530;-71
2022/01/22 11:47:05;;;;;;;;;22.00;19.50;;;;;20.98;44.72;101563.70;113029;1242;22570;-70
2022/01/22 11:49:32;;;;;;;;;19.67;16.33;;;;;21.00;44.59;101567.05;113027;1242;22758;-69
2022/01/22 11:51:58;;;;;;;;;20.00;19.50;;;;;20.99;44.71;101567.61;113065;1241;19207;-69
2022/01/22 11:54:24;;;;;;;;;24.00;20.50;;;;;21.00;44.65;101571.73;113058;1242;20079;-69
2022/01/22 11:56:50;;;;;;;;;19.00;16.00;;;;;20.99;44.84;101574.32;113031;1241;19082;-69
2022/01/22 11:59:15;;;;;;;;;24.00;20.00;;;;;21.00;44.63;101573.55;112999;1241;22710;-67
2022/01/22 12:01:41;;;;;;;;;20.50;18.00;;;;;21.00;44.60;101578.23;113006;1242;23049;-68
2022/01/22 12:04:08;;;;;;;;;16.00;15.00;;;;;21.00;44.72;101581.75;113004;1242;18995;-69
2022/01/22 12:06:33;;;;;;;;;19.33;16.33;;;;;20.99;44.61;101587.98;113027;1241;20113;-69
2022/01/22 12:08:59;;;;;;;;;19.00;16.50;;;;;21.01;44.67;101590.48;113005;1242;22656;-68
2022/01/22 12:14:28;;;;;;;;;17.00;16.00;;;;;20.99;44.72;101595.38;113005;1242;19795;-68
2022/01/22 12:16:58;;;;;;;;;24.00;20.00;;;;;21.00;44.58;101599.20;113034;1242;21478;-68
2022/01/22 12:19:24;;;;;;;;;20.00;19.00;;;;;20.99;44.46;101602.84;113023;1241;22759;-68